createdAt,value
2019-01-03T00:04:55.011Z,56.56
2019-01-03T00:10:15.293Z,56.58
2019-01-03T00:15:43.243Z,56.49
2019-01-03T00:21:04.005Z,57.00
2019-01-03T00:26:33.586Z,56.30
2019-01-03T00:31:55.235Z,55.71
2019-01-03T00:37:24.753Z,57.14
2019-01-03T00:42:46.404Z,61.48
2019-01-03T00:48:06.915Z,61.62
2019-01-03T00:53:27.205Z,63.23
2019-01-03T00:58:57.878Z,64.05
2019-01-03T01:04:18.248Z,63.75
2019-01-03T01:09:38.601Z,64.18
2019-01-03T01:14:58.823Z,64.14
2019-01-03T01:20:14.081Z,64.74
2019-01-03T01:25:28.686Z,63.69
2019-01-03T01:30:49.093Z,62.49
2019-01-03T01:36:10.698Z,60.47
2019-01-03T01:41:32.371Z,58.89
2019-01-03T01:46:54.623Z,58.44
2019-01-03T01:52:26.383Z,57.90
2019-01-03T01:57:54.042Z,57.57
2019-01-03T02:03:15.712Z,57.50
2019-01-03T02:08:37.281Z,57.42
2019-01-03T02:13:57.963Z,57.61
2019-01-03T02:19:28.504Z,58.15
2019-01-03T02:24:46.572Z,58.26
2019-01-03T02:30:17.428Z,58.31
2019-01-03T02:35:35.279Z,58.76
2019-01-03T02:40:55.747Z,61.76
2019-01-03T02:46:17.350Z,65.02
2019-01-03T02:51:41.714Z,66.00
2019-01-03T02:57:02.104Z,66.11
2019-01-03T03:02:23.322Z,67.03
2019-01-03T03:07:47.776Z,67.18
2019-01-03T03:13:27.499Z,68.13
2019-01-03T03:18:49.131Z,68.00
2019-01-03T03:24:26.123Z,68.13
2019-01-03T03:29:51.133Z,68.38
2019-01-03T03:35:17.965Z,68.37
2019-01-03T03:40:38.446Z,68.75
2019-01-03T03:45:59.071Z,68.67
2019-01-03T03:51:26.251Z,68.38
2019-01-03T03:57:05.836Z,68.38
2019-01-03T04:02:30.120Z,68.12
2019-01-03T04:08:03.740Z,68.62
2019-01-03T04:13:21.398Z,67.68
2019-01-03T04:18:41.844Z,68.47
2019-01-03T04:24:09.274Z,68.53
2019-01-03T04:29:30.841Z,68.06
2019-01-03T04:34:58.311Z,68.24
2019-01-03T04:40:18.546Z,68.25
2019-01-03T04:45:41.320Z,67.88
2019-01-03T04:51:18.146Z,68.04
2019-01-03T04:56:39.746Z,68.15
2019-01-03T05:02:04.905Z,68.83
2019-01-03T05:07:20.980Z,68.41
2019-01-03T05:12:42.608Z,68.97
2019-01-03T05:18:02.831Z,69.72
2019-01-03T05:23:23.198Z,69.40
2019-01-03T05:28:43.714Z,69.75
2019-01-03T05:34:04.581Z,70.09
2019-01-03T05:39:38.509Z,69.91
2019-01-03T05:44:58.948Z,70.03
2019-01-03T05:50:19.522Z,70.04
2019-01-03T05:55:39.978Z,70.15
2019-01-03T06:00:56.978Z,70.76
2019-01-03T06:06:17.442Z,71.19
2019-01-03T06:11:57.496Z,71.12
2019-01-03T06:17:24.749Z,72.30
2019-01-03T06:23:01.470Z,72.24
2019-01-03T06:28:25.775Z,72.62
2019-01-03T06:33:46.305Z,73.23
2019-01-03T06:39:06.676Z,73.46
2019-01-03T06:44:26.848Z,73.49
2019-01-03T06:49:47.193Z,73.81
2019-01-03T06:55:06.711Z,74.09
2019-01-03T07:00:34.394Z,74.12
2019-01-03T07:05:54.730Z,74.24
2019-01-03T07:11:14.939Z,74.65
2019-01-03T07:16:35.288Z,74.75
2019-01-03T07:21:59.945Z,74.94
2019-01-03T07:27:20.228Z,75.04
2019-01-03T07:32:41.835Z,75.26
2019-01-03T07:38:03.437Z,75.57
2019-01-03T07:43:23.767Z,75.57
2019-01-03T07:48:46.110Z,75.96
2019-01-03T07:54:19.794Z,76.41
2019-01-03T07:59:40.095Z,76.71
2019-01-03T08:04:52.895Z,77.45
2019-01-03T08:10:14.475Z,77.76
2019-01-03T08:15:34.980Z,78.09
2019-01-03T08:20:55.274Z,78.31
2019-01-03T08:26:25.305Z,76.48
2019-01-03T08:31:44.170Z,76.61
2019-01-03T08:37:04.817Z,76.51
2019-01-03T08:42:25.181Z,76.97
2019-01-03T08:47:52.846Z,76.17
2019-01-03T08:53:20.857Z,75.72
2019-01-03T08:58:54.635Z,75.81
2019-01-03T09:04:28.371Z,75.37
2019-01-03T09:10:08.672Z,76.08
2019-01-03T09:15:36.578Z,76.67
2019-01-03T09:20:57.094Z,76.53
2019-01-03T09:26:24.057Z,77.08
2019-01-03T09:31:44.269Z,76.40
2019-01-03T09:37:08.705Z,74.83
2019-01-03T09:42:42.562Z,75.96
2019-01-03T09:47:44.548Z,76.23
2019-01-03T09:52:47.663Z,75.55
2019-01-03T09:57:49.690Z,75.82
2019-01-03T10:02:51.979Z,75.71
2019-01-03T10:07:54.024Z,75.89
2019-01-03T10:12:56.049Z,75.62
2019-01-03T10:17:58.065Z,75.61
2019-01-03T10:23:00.450Z,76.08
2019-01-03T10:28:02.456Z,75.75
2019-01-03T10:33:04.464Z,75.77
2019-01-03T10:38:06.427Z,76.04
2019-01-03T10:43:08.488Z,76.54
2019-01-03T10:48:10.784Z,76.49
2019-01-03T10:53:12.848Z,77.91
2019-01-03T10:58:14.829Z,78.09
2019-01-03T11:03:18.141Z,78.08
2019-01-03T11:08:20.159Z,77.58
2019-01-03T11:13:22.213Z,78.35
2019-01-03T11:18:24.217Z,78.72
2019-01-03T11:23:26.284Z,78.27
2019-01-03T11:28:28.310Z,79.00
2019-01-03T11:33:30.356Z,79.86
2019-01-03T11:38:32.395Z,80.84
2019-01-03T11:43:34.480Z,80.69
2019-01-03T11:48:36.761Z,80.04
2019-01-03T11:53:38.759Z,80.15
2019-01-03T11:58:41.048Z,79.81
2019-01-03T12:03:43.060Z,79.87
2019-01-03T12:08:45.117Z,79.87
2019-01-03T12:13:47.170Z,79.43
2019-01-03T12:18:49.186Z,79.36
2019-01-03T12:23:51.499Z,79.50
2019-01-03T12:28:53.528Z,79.50
2019-01-03T12:33:55.533Z,79.40
2019-01-03T12:38:57.524Z,78.88
2019-01-03T12:43:59.561Z,79.23
2019-01-03T12:49:01.583Z,80.37
2019-01-03T12:54:03.605Z,79.42
2019-01-03T12:59:05.616Z,79.27
2019-01-03T13:04:07.585Z,79.38
2019-01-03T13:09:18.925Z,79.05
2019-01-03T13:14:20.921Z,78.44
2019-01-03T13:19:23.003Z,78.05
2019-01-03T13:24:25.012Z,78.70
2019-01-03T13:29:27.048Z,78.43
2019-01-03T13:34:29.301Z,78.33
2019-01-03T13:39:31.318Z,79.15
2019-01-03T13:44:33.275Z,80.27
2019-01-03T13:49:35.323Z,80.27
2019-01-03T13:54:37.364Z,80.32
2019-01-03T13:59:41.387Z,79.97
2019-01-03T14:04:43.372Z,80.19
2019-01-03T14:09:45.390Z,79.76
2019-01-03T14:14:47.398Z,79.42
2019-01-03T14:19:49.425Z,78.25
2019-01-03T14:24:51.388Z,77.77
2019-01-03T14:29:53.817Z,77.77
2019-01-03T14:34:56.209Z,79.45
2019-01-03T14:39:58.198Z,80.29
2019-01-03T14:45:00.329Z,80.04
2019-01-03T14:50:03.045Z,80.53
2019-01-03T14:55:05.322Z,80.03
2019-01-03T15:00:10.615Z,77.49
2019-01-03T15:05:14.049Z,77.08
2019-01-03T15:10:16.150Z,76.55
2019-01-03T15:15:18.268Z,76.83
2019-01-03T15:20:20.274Z,76.30
2019-01-03T15:25:22.242Z,76.64
2019-01-03T15:30:24.270Z,77.00
2019-01-03T15:35:26.254Z,77.20
2019-01-03T15:40:51.105Z,79.64
2019-01-03T15:45:54.200Z,81.21
2019-01-03T15:50:56.212Z,82.79
2019-01-03T15:55:58.267Z,82.79
2019-01-03T16:01:00.333Z,81.30
2019-01-03T16:06:02.351Z,80.05
2019-01-03T16:11:04.344Z,80.05
2019-01-03T16:16:06.411Z,80.26
2019-01-03T16:21:08.807Z,81.50
2019-01-03T16:26:10.783Z,83.82
2019-01-03T16:31:12.798Z,84.84
2019-01-03T16:36:14.806Z,85.29
2019-01-03T16:41:17.113Z,85.48
2019-01-03T16:46:19.108Z,85.64
2019-01-03T16:51:21.087Z,86.20
2019-01-03T16:56:23.094Z,86.21
2019-01-03T17:01:25.162Z,86.92
2019-01-03T17:06:27.394Z,87.09
2019-01-03T17:11:29.396Z,87.22
2019-01-03T17:16:31.455Z,86.68
2019-01-03T17:21:33.673Z,86.72
2019-01-03T17:26:35.722Z,86.86
2019-01-03T17:31:38.068Z,87.53
2019-01-03T17:36:40.111Z,87.40
2019-01-03T17:41:42.166Z,87.36
2019-01-03T17:46:44.276Z,87.30
2019-01-03T17:51:46.320Z,87.26
2019-01-03T17:56:48.723Z,87.44
2019-01-03T18:01:50.708Z,88.08
2019-01-03T18:06:52.687Z,87.84
2019-01-03T18:11:54.727Z,87.86
2019-01-03T18:16:56.763Z,87.71
2019-01-03T18:21:58.837Z,87.84
2019-01-03T18:27:00.847Z,87.88
2019-01-03T18:32:02.876Z,88.32
2019-01-03T18:37:05.011Z,88.26
2019-01-03T18:42:07.442Z,87.38
2019-01-03T18:47:09.824Z,87.59
2019-01-03T18:52:11.796Z,88.32
2019-01-03T18:57:14.083Z,88.48
2019-01-03T19:02:16.088Z,88.58
2019-01-03T19:07:18.147Z,89.56
2019-01-03T19:12:20.517Z,88.99
2019-01-03T19:17:22.543Z,88.59
2019-01-03T19:22:24.516Z,88.54
2019-01-03T19:27:26.491Z,88.59
2019-01-03T19:32:28.512Z,88.82
2019-01-03T19:37:30.542Z,90.22
2019-01-03T19:42:33.631Z,90.25
2019-01-03T19:47:35.612Z,90.37
2019-01-03T19:52:37.665Z,91.10
2019-01-03T19:57:39.800Z,90.60
2019-01-03T20:02:41.803Z,90.97
2019-01-03T20:07:44.689Z,90.58
2019-01-03T20:12:46.723Z,90.53
2019-01-03T20:17:49.644Z,90.65
2019-01-03T20:22:51.667Z,91.21
2019-01-03T20:27:53.728Z,90.72
2019-01-03T20:32:56.599Z,90.91
2019-01-03T20:37:58.648Z,91.00
2019-01-03T20:43:01.107Z,91.43
2019-01-03T20:48:04.480Z,91.82
2019-01-03T20:53:06.457Z,91.75
2019-01-03T20:58:09.274Z,92.01
2019-01-03T21:03:11.307Z,91.44
2019-01-03T21:08:13.346Z,91.67
2019-01-03T21:13:15.375Z,91.35
2019-01-03T21:18:17.405Z,91.69
2019-01-03T21:23:19.401Z,91.79
2019-01-03T21:28:24.923Z,91.76
2019-01-03T21:33:26.994Z,92.60
2019-01-03T21:38:29.100Z,92.62
2019-01-03T21:43:31.088Z,93.00
2019-01-03T21:48:33.251Z,93.23
2019-01-03T21:53:35.277Z,93.14
2019-01-03T21:58:37.296Z,92.79
2019-01-03T22:03:39.640Z,93.12
2019-01-03T22:08:41.683Z,93.03
2019-01-03T22:13:44.053Z,93.05
2019-01-03T22:18:46.112Z,92.79
2019-01-03T22:23:48.451Z,92.59
2019-01-03T22:28:50.445Z,93.16
2019-01-03T22:33:52.434Z,93.38
2019-01-03T22:38:54.784Z,93.02
2019-01-03T22:43:57.096Z,93.27
2019-01-03T22:48:59.112Z,92.57
2019-01-03T22:54:01.116Z,93.08
2019-01-03T22:59:03.137Z,92.64
2019-01-03T23:04:05.171Z,93.39
2019-01-03T23:09:07.157Z,93.73
2019-01-03T23:14:09.171Z,93.90
2019-01-03T23:19:11.207Z,94.28
2019-01-03T23:24:13.188Z,94.36
2019-01-03T23:29:15.138Z,94.86
2019-01-03T23:34:17.177Z,95.12
2019-01-03T23:39:19.171Z,94.90
2019-01-03T23:44:21.462Z,94.96
2019-01-03T23:49:23.471Z,95.22
2019-01-03T23:54:25.483Z,95.89
2019-01-03T23:59:27.565Z,95.32
